createdAt,value
2018-04-29T00:00:00.350Z,0.00
2018-04-29T00:01:00.247Z,0.00
2018-04-29T00:02:00.157Z,0.00
2018-04-29T00:03:00.052Z,0.00
2018-04-29T00:03:59.962Z,0.00
2018-04-29T00:04:59.858Z,0.00
2018-04-29T00:05:59.766Z,0.00
2018-04-29T00:06:59.678Z,0.00
2018-04-29T00:07:59.572Z,0.00
2018-04-29T00:08:59.481Z,0.00
2018-04-29T00:09:59.381Z,0.00
2018-04-29T00:10:59.288Z,0.00
2018-04-29T00:11:59.224Z,0.00
2018-04-29T00:12:59.107Z,0.00
2018-04-29T00:13:58.990Z,0.00
2018-04-29T00:14:58.900Z,0.00
2018-04-29T00:15:58.807Z,0.00
2018-04-29T00:16:58.705Z,0.00
2018-04-29T00:17:58.615Z,0.00
2018-04-29T00:18:58.515Z,0.00
2018-04-29T00:19:58.482Z,0.00
2018-04-29T00:20:58.316Z,0.00
2018-04-29T00:21:58.227Z,0.00
2018-04-29T00:22:58.123Z,0.00
2018-04-29T00:23:58.031Z,0.00
2018-04-29T00:24:57.929Z,0.00
2018-04-29T00:25:57.841Z,0.00
2018-04-29T00:26:57.736Z,0.00
2018-04-29T00:27:57.644Z,0.00
2018-04-29T00:28:57.553Z,0.00
2018-04-29T00:29:57.449Z,0.00
2018-04-29T00:30:57.358Z,0.00
2018-04-29T00:31:57.256Z,0.00
2018-04-29T00:32:57.173Z,0.00
2018-04-29T00:33:57.062Z,0.00
2018-04-29T00:34:56.970Z,0.00
2018-04-29T00:35:56.867Z,0.00
2018-04-29T00:36:56.776Z,0.00
2018-04-29T00:37:56.684Z,0.00
2018-04-29T00:38:56.583Z,0.00
2018-04-29T00:39:56.491Z,0.00
2018-04-29T00:40:56.388Z,0.00
2018-04-29T00:41:56.297Z,0.00
2018-04-29T00:42:56.193Z,0.00
2018-04-29T00:43:56.104Z,0.00
2018-04-29T00:44:56.000Z,0.00
2018-04-29T00:45:55.910Z,0.00
2018-04-29T00:46:55.818Z,0.00
2018-04-29T00:47:55.719Z,0.00
2018-04-29T00:48:55.624Z,0.00
2018-04-29T00:49:55.520Z,0.00
2018-04-29T00:50:55.494Z,0.00
2018-04-29T00:51:55.327Z,0.00
2018-04-29T00:52:55.237Z,0.00
2018-04-29T00:53:55.133Z,0.00
2018-04-29T00:54:55.042Z,0.00
2018-04-29T00:55:54.963Z,0.00
2018-04-29T00:56:54.847Z,0.00
2018-04-29T00:57:54.758Z,0.00
2018-04-29T00:58:54.654Z,0.00
2018-04-29T00:59:54.565Z,0.00
2018-04-29T01:00:54.460Z,0.00
2018-04-29T01:01:54.369Z,0.00
2018-04-29T01:02:54.265Z,0.00
2018-04-29T01:03:54.175Z,0.00
2018-04-29T01:04:54.070Z,0.00
2018-04-29T01:05:53.984Z,0.00
2018-04-29T01:06:53.877Z,0.00
2018-04-29T01:07:53.786Z,0.00
2018-04-29T01:08:53.682Z,0.00
2018-04-29T01:09:53.593Z,0.00
2018-04-29T01:10:53.489Z,0.00
2018-04-29T01:11:53.397Z,0.00
2018-04-29T01:12:53.295Z,0.00
2018-04-29T01:13:53.204Z,0.00
2018-04-29T01:14:53.112Z,0.00
2018-04-29T01:15:53.009Z,0.00
2018-04-29T01:16:52.907Z,0.00
2018-04-29T01:17:52.815Z,0.00
2018-04-29T01:18:52.724Z,0.00
2018-04-29T01:19:52.620Z,0.00
2018-04-29T01:20:52.769Z,0.00
2018-04-29T01:21:52.427Z,0.00
2018-04-29T01:22:52.352Z,0.00
2018-04-29T01:23:52.233Z,0.00
2018-04-29T01:24:52.131Z,0.00
2018-04-29T01:25:52.041Z,0.00
2018-04-29T01:26:51.947Z,0.00
2018-04-29T01:27:51.844Z,0.00
2018-04-29T01:28:51.742Z,0.00
2018-04-29T01:29:51.651Z,0.00
2018-04-29T01:30:51.559Z,0.00
2018-04-29T01:31:51.456Z,0.00
2018-04-29T01:32:51.354Z,0.00
2018-04-29T01:33:51.262Z,0.00
2018-04-29T01:34:51.172Z,0.00
2018-04-29T01:35:51.068Z,0.00
2018-04-29T01:36:50.966Z,0.00
2018-04-29T01:37:50.874Z,0.00
2018-04-29T01:38:50.782Z,0.00
2018-04-29T01:39:50.679Z,0.00
2018-04-29T01:40:50.590Z,0.00
2018-04-29T01:41:50.486Z,0.00
2018-04-29T01:42:50.394Z,0.00
2018-04-29T01:43:50.291Z,0.00
2018-04-29T01:44:50.201Z,0.00
2018-04-29T01:45:50.098Z,0.00
2018-04-29T01:46:50.011Z,0.00
2018-04-29T01:47:49.916Z,0.00
2018-04-29T01:48:49.813Z,0.00
2018-04-29T01:49:49.711Z,0.00
2018-04-29T01:50:49.618Z,0.00
2018-04-29T01:51:49.514Z,0.00
2018-04-29T01:52:49.425Z,0.00
2018-04-29T01:53:49.324Z,0.00
2018-04-29T01:54:49.231Z,0.00
2018-04-29T01:55:49.127Z,0.00
2018-04-29T01:56:49.037Z,0.00
2018-04-29T01:57:48.938Z,0.00
2018-04-29T01:58:48.841Z,0.00
2018-04-29T01:59:48.743Z,0.00
2018-04-29T02:00:48.949Z,0.00
2018-04-29T02:01:48.546Z,0.00
2018-04-29T02:02:48.453Z,0.00
2018-04-29T02:03:48.351Z,0.00
2018-04-29T02:04:48.261Z,0.00
2018-04-29T02:05:48.157Z,0.00
2018-04-29T02:06:48.065Z,0.00
2018-04-29T02:07:47.975Z,0.00
2018-04-29T02:08:47.874Z,0.00
2018-04-29T02:09:47.780Z,0.00
2018-04-29T02:10:47.678Z,0.00
2018-04-29T02:11:47.587Z,0.00
2018-04-29T02:12:47.484Z,0.00
2018-04-29T02:13:47.392Z,0.00
2018-04-29T02:14:47.288Z,0.00
2018-04-29T02:15:47.205Z,0.00
2018-04-29T02:16:47.098Z,0.00
2018-04-29T02:17:47.004Z,0.00
2018-04-29T02:18:46.901Z,0.00
2018-04-29T02:19:46.812Z,0.00
2018-04-29T02:20:46.957Z,0.00
2018-04-29T02:21:46.616Z,0.00
2018-04-29T02:22:46.515Z,0.00
2018-04-29T02:23:46.425Z,0.00
2018-04-29T02:24:46.323Z,0.00
2018-04-29T02:25:46.228Z,0.00
2018-04-29T02:26:46.126Z,0.00
2018-04-29T02:27:46.034Z,0.00
2018-04-29T02:28:45.931Z,0.00
2018-04-29T02:29:45.839Z,0.00
2018-04-29T02:30:45.741Z,0.00
2018-04-29T02:31:45.646Z,0.00
2018-04-29T02:32:45.542Z,0.00
2018-04-29T02:33:45.454Z,0.00
2018-04-29T02:34:45.348Z,0.00
2018-04-29T02:35:45.259Z,0.00
2018-04-29T02:36:45.156Z,0.00
2018-04-29T02:37:45.077Z,0.00
2018-04-29T02:38:44.960Z,0.00
2018-04-29T02:39:44.871Z,0.00
2018-04-29T02:40:44.766Z,0.00
2018-04-29T02:41:44.664Z,0.00
2018-04-29T02:42:44.573Z,0.00
2018-04-29T02:43:44.473Z,0.00
2018-04-29T02:44:44.380Z,0.00
2018-04-29T02:45:44.275Z,0.00
2018-04-29T02:46:44.183Z,0.00
2018-04-29T02:47:44.081Z,0.00
2018-04-29T02:48:43.991Z,0.00
2018-04-29T02:49:43.887Z,0.00
2018-04-29T02:50:43.798Z,0.00
2018-04-29T02:51:43.693Z,0.00
2018-04-29T02:52:43.603Z,0.00
2018-04-29T02:53:43.498Z,0.00
2018-04-29T02:54:43.407Z,0.00
2018-04-29T02:55:43.303Z,0.00
2018-04-29T02:56:43.214Z,0.00
2018-04-29T02:57:43.110Z,0.00
2018-04-29T02:58:43.019Z,0.00
2018-04-29T02:59:42.916Z,0.00
2018-04-29T03:00:43.127Z,0.00
2018-04-29T03:01:42.722Z,0.00
2018-04-29T03:02:42.631Z,0.00
2018-04-29T03:03:42.533Z,0.00
2018-04-29T03:04:42.425Z,0.00
2018-04-29T03:05:42.334Z,0.00
2018-04-29T03:06:42.231Z,4.00
2018-04-29T03:07:42.138Z,4.00
2018-04-29T03:08:42.036Z,4.00
2018-04-29T03:09:41.945Z,0.00
2018-04-29T03:10:41.843Z,4.00
2018-04-29T03:11:41.751Z,4.00
2018-04-29T03:12:41.648Z,4.00
2018-04-29T03:13:41.557Z,8.00
2018-04-29T03:14:41.454Z,8.00
2018-04-29T03:15:41.363Z,12.00
2018-04-29T03:16:41.259Z,12.00
2018-04-29T03:17:41.169Z,16.00
2018-04-29T03:18:41.065Z,12.00
2018-04-29T03:19:40.974Z,20.00
2018-04-29T03:20:40.871Z,20.00
2018-04-29T03:21:40.780Z,24.00
2018-04-29T03:22:40.678Z,28.00
2018-04-29T03:23:40.586Z,32.00
2018-04-29T03:24:40.496Z,36.00
2018-04-29T03:25:40.393Z,40.00
2018-04-29T03:26:40.289Z,44.00
2018-04-29T03:27:40.199Z,52.00
2018-04-29T03:28:40.098Z,56.00
2018-04-29T03:29:39.991Z,60.00
2018-04-29T03:30:39.901Z,68.00
2018-04-29T03:31:39.799Z,72.00
2018-04-29T03:32:39.706Z,80.00
2018-04-29T03:33:39.603Z,88.00
2018-04-29T03:34:39.512Z,96.00
2018-04-29T03:35:39.409Z,104.00
2018-04-29T03:36:39.317Z,116.00
2018-04-29T03:37:39.216Z,124.00
2018-04-29T03:38:39.112Z,132.00
2018-04-29T03:39:39.021Z,144.00
2018-04-29T03:40:39.167Z,152.00
2018-04-29T03:41:38.825Z,164.00
2018-04-29T03:42:38.736Z,180.00
2018-04-29T03:43:38.633Z,192.00
2018-04-29T03:44:38.529Z,204.00
2018-04-29T03:45:38.439Z,220.00
2018-04-29T03:46:38.347Z,240.00
2018-04-29T03:47:38.232Z,256.00
2018-04-29T03:48:38.141Z,276.00
2018-04-29T03:49:38.038Z,300.00
2018-04-29T03:50:37.945Z,328.00
2018-04-29T03:51:37.852Z,356.00
2018-04-29T03:52:37.753Z,388.00
2018-04-29T03:53:37.649Z,424.00
2018-04-29T03:54:37.545Z,456.00
2018-04-29T03:55:37.454Z,492.00
2018-04-29T03:56:37.350Z,536.00
2018-04-29T03:57:37.262Z,576.00
2018-04-29T03:58:37.158Z,628.00
2018-04-29T03:59:37.079Z,688.00
2018-04-29T04:00:36.963Z,752.00
2018-04-29T04:01:36.860Z,820.00
2018-04-29T04:02:36.832Z,884.00
2018-04-29T04:03:36.666Z,940.00
2018-04-29T04:04:36.575Z,1000.00
2018-04-29T04:05:36.471Z,1044.00
2018-04-29T04:06:36.369Z,1080.00
2018-04-29T04:07:36.278Z,1104.00
2018-04-29T04:08:36.175Z,1124.00
2018-04-29T04:09:36.085Z,1140.00
2018-04-29T04:10:35.979Z,1160.00
2018-04-29T04:11:35.889Z,1172.00
2018-04-29T04:12:35.790Z,1196.00
2018-04-29T04:13:35.684Z,1216.00
2018-04-29T04:14:35.591Z,1232.00
2018-04-29T04:15:35.488Z,1248.00
2018-04-29T04:16:35.398Z,1256.00
2018-04-29T04:17:35.294Z,1244.00
2018-04-29T04:18:35.204Z,1224.00
2018-04-29T04:19:35.100Z,1208.00
2018-04-29T04:20:34.998Z,1196.00
2018-04-29T04:21:34.906Z,1184.00
2018-04-29T04:22:34.803Z,1192.00
2018-04-29T04:23:34.711Z,1200.00
2018-04-29T04:24:34.611Z,1204.00
2018-04-29T04:25:34.518Z,1224.00
2018-04-29T04:26:34.423Z,1244.00
2018-04-29T04:27:34.324Z,1272.00
2018-04-29T04:28:34.220Z,1304.00
2018-04-29T04:29:34.119Z,1340.00
2018-04-29T04:30:34.027Z,1364.00
2018-04-29T04:31:33.923Z,1388.00
2018-04-29T04:32:33.832Z,1412.00
2018-04-29T04:33:33.728Z,1432.00
2018-04-29T04:34:33.638Z,1468.00
2018-04-29T04:35:33.836Z,1504.00
2018-04-29T04:36:33.443Z,1544.00
2018-04-29T04:37:33.341Z,1584.00
2018-04-29T04:38:33.254Z,1600.00
2018-04-29T04:39:33.149Z,1596.00
2018-04-29T04:40:33.055Z,1568.00
2018-04-29T04:41:32.952Z,1500.00
2018-04-29T04:42:32.862Z,1444.00
2018-04-29T04:43:32.758Z,1420.00
2018-04-29T04:44:32.655Z,1408.00
2018-04-29T04:45:32.564Z,1424.00
2018-04-29T04:46:32.460Z,1468.00
2018-04-29T04:47:32.370Z,1548.00
2018-04-29T04:48:32.267Z,1552.00
2018-04-29T04:49:32.175Z,1596.00
2018-04-29T04:50:32.147Z,1636.00
2018-04-29T04:51:31.982Z,1752.00
2018-04-29T04:52:31.878Z,1792.00
2018-04-29T04:53:31.787Z,1816.00
2018-04-29T04:54:31.683Z,1844.00
2018-04-29T04:55:31.593Z,1972.00
2018-04-29T04:56:31.490Z,2104.00
2018-04-29T04:57:31.399Z,2176.00
2018-04-29T04:58:31.296Z,2296.00
2018-04-29T04:59:31.205Z,2444.00
2018-04-29T05:00:31.102Z,2552.00
2018-04-29T05:01:31.010Z,2664.00
2018-04-29T05:02:30.907Z,2804.00
2018-04-29T05:03:30.819Z,2904.00
2018-04-29T05:04:30.713Z,2876.00
2018-04-29T05:05:30.621Z,2932.00
2018-04-29T05:06:30.518Z,3020.00
2018-04-29T05:07:30.428Z,3560.00
2018-04-29T05:08:30.326Z,4204.00
2018-04-29T05:09:30.246Z,4620.00
2018-04-29T05:10:30.129Z,5352.00
2018-04-29T05:11:30.041Z,5684.00
2018-04-29T05:12:29.940Z,6028.00
2018-04-29T05:13:29.846Z,6124.00
2018-04-29T05:14:29.747Z,6120.00
2018-04-29T05:15:29.652Z,6156.00
2018-04-29T05:16:29.561Z,6124.00
2018-04-29T05:17:29.462Z,6124.00
2018-04-29T05:18:29.367Z,6084.00
2018-04-29T05:19:29.275Z,5876.00
2018-04-29T05:20:29.173Z,5288.00
2018-04-29T05:21:29.083Z,6208.00
2018-04-29T05:22:28.982Z,6016.00
2018-04-29T05:23:28.887Z,6240.00
2018-04-29T05:24:28.797Z,6276.00
2018-04-29T05:25:28.704Z,6368.00
2018-04-29T05:26:28.606Z,6448.00
2018-04-29T05:27:28.513Z,6740.00
2018-04-29T05:28:28.421Z,6936.00
2018-04-29T05:29:28.321Z,6944.00
2018-04-29T05:30:28.228Z,6840.00
2018-04-29T05:31:28.136Z,6852.00
2018-04-29T05:32:28.046Z,7040.00
2018-04-29T05:33:27.954Z,6452.00
2018-04-29T05:34:27.855Z,6440.00
2018-04-29T05:35:27.776Z,6316.00
2018-04-29T05:36:27.683Z,6612.00
2018-04-29T05:37:27.579Z,5884.00
2018-04-29T05:38:27.488Z,6736.00
2018-04-29T05:39:27.398Z,7048.00
2018-04-29T05:40:27.336Z,7080.00
2018-04-29T05:41:27.223Z,7300.00
2018-04-29T05:42:27.124Z,7988.00
2018-04-29T05:43:27.034Z,7704.00
2018-04-29T05:44:26.931Z,8344.00
2018-04-29T05:45:26.843Z,8824.00
2018-04-29T05:46:26.750Z,8900.00
2018-04-29T05:47:26.659Z,9068.00
2018-04-29T05:48:26.568Z,9104.00
2018-04-29T05:49:26.478Z,8864.00
2018-04-29T05:50:26.388Z,8804.00
2018-04-29T05:51:26.299Z,9104.00
2018-04-29T05:52:26.210Z,9000.00
2018-04-29T05:53:26.121Z,8280.00
2018-04-29T05:54:26.036Z,8864.00
2018-04-29T05:55:25.949Z,9524.00
2018-04-29T05:56:25.854Z,9380.00
2018-04-29T05:57:25.763Z,8456.00
2018-04-29T05:58:25.672Z,4176.00
2018-04-29T05:59:25.583Z,4172.00
2018-04-29T06:00:25.551Z,5536.00
2018-04-29T06:01:25.400Z,5972.00
2018-04-29T06:02:25.311Z,4852.00
2018-04-29T06:03:25.232Z,4312.00
2018-04-29T06:04:25.142Z,4420.00
2018-04-29T06:05:25.049Z,8028.00
2018-04-29T06:06:24.974Z,8516.00
2018-04-29T06:07:24.868Z,6304.00
2018-04-29T06:08:24.778Z,4952.00
2018-04-29T06:09:24.688Z,4764.00
2018-04-29T06:10:24.609Z,4672.00
2018-04-29T06:11:24.517Z,7204.00
2018-04-29T06:12:24.426Z,5920.00
2018-04-29T06:13:24.339Z,7904.00
2018-04-29T06:14:24.245Z,8968.00
2018-04-29T06:15:24.154Z,10680.00
2018-04-29T06:16:24.063Z,11008.00
2018-04-29T06:17:23.973Z,11464.00
2018-04-29T06:18:23.882Z,11780.00
2018-04-29T06:19:23.806Z,11980.00
2018-04-29T06:20:23.778Z,12612.00
2018-04-29T06:21:23.621Z,12496.00
2018-04-29T06:22:23.531Z,12708.00
2018-04-29T06:23:23.440Z,12736.00
2018-04-29T06:24:23.349Z,8872.00
2018-04-29T06:25:23.272Z,11108.00
2018-04-29T06:26:23.180Z,8808.00
2018-04-29T06:27:23.090Z,8388.00
2018-04-29T06:28:22.999Z,8248.00
2018-04-29T06:29:22.907Z,9456.00
2018-04-29T06:30:22.833Z,8744.00
2018-04-29T06:31:22.737Z,10412.00
2018-04-29T06:32:22.648Z,12964.00
2018-04-29T06:33:22.557Z,11948.00
2018-04-29T06:34:22.478Z,10924.00
2018-04-29T06:35:22.387Z,10444.00
2018-04-29T06:36:22.296Z,10128.00
2018-04-29T06:37:22.206Z,10176.00
2018-04-29T06:38:22.117Z,11272.00
2018-04-29T06:39:22.037Z,12076.00
2018-04-29T06:40:22.197Z,13280.00
2018-04-29T06:41:21.855Z,13932.00
2018-04-29T06:42:21.776Z,14860.00
2018-04-29T06:43:21.686Z,14780.00
2018-04-29T06:44:21.596Z,15724.00
2018-04-29T06:45:21.505Z,16448.00
2018-04-29T06:46:21.426Z,16704.00
2018-04-29T06:47:21.335Z,16896.00
2018-04-29T06:48:21.248Z,16288.00
2018-04-29T06:49:21.154Z,15648.00
2018-04-29T06:50:21.076Z,14056.00
2018-04-29T06:51:20.984Z,12424.00
2018-04-29T06:52:20.893Z,11384.00
2018-04-29T06:53:20.819Z,10608.00
2018-04-29T06:54:20.725Z,10168.00
2018-04-29T06:55:20.634Z,9932.00
2018-04-29T06:56:20.544Z,9940.00
2018-04-29T06:57:20.466Z,10156.00
2018-04-29T06:58:20.374Z,10368.00
2018-04-29T06:59:20.283Z,10480.00
2018-04-29T07:00:20.205Z,10332.00
2018-04-29T07:01:20.116Z,9844.00
2018-04-29T07:02:20.023Z,9424.00
2018-04-29T07:03:19.932Z,9128.00
2018-04-29T07:04:19.844Z,8952.00
2018-04-29T07:05:19.764Z,8828.00
2018-04-29T07:06:19.672Z,8832.00
2018-04-29T07:07:19.582Z,8892.00
2018-04-29T07:08:19.490Z,8876.00
2018-04-29T07:09:19.401Z,8620.00
2018-04-29T07:10:19.323Z,8312.00
2018-04-29T07:11:19.235Z,8188.00
2018-04-29T07:12:19.141Z,8376.00
2018-04-29T07:13:19.050Z,9100.00
2018-04-29T07:14:18.960Z,10292.00
2018-04-29T07:15:18.868Z,11376.00
2018-04-29T07:16:18.777Z,12220.00
2018-04-29T07:17:18.686Z,12756.00
2018-04-29T07:18:18.609Z,12876.00
2018-04-29T07:19:18.520Z,12812.00
2018-04-29T07:20:18.426Z,12656.00
2018-04-29T07:21:18.336Z,12644.00
2018-04-29T07:22:18.245Z,12912.00
2018-04-29T07:23:18.155Z,17600.00
2018-04-29T07:24:18.063Z,16640.00
2018-04-29T07:25:17.974Z,16120.00
2018-04-29T07:26:17.881Z,15168.00
2018-04-29T07:27:17.790Z,15136.00
2018-04-29T07:28:17.699Z,16220.00
2018-04-29T07:29:17.610Z,17888.00
2018-04-29T07:30:17.531Z,18240.00
2018-04-29T07:31:17.440Z,18752.00
2018-04-29T07:32:17.350Z,18976.00
2018-04-29T07:33:17.259Z,17824.00
2018-04-29T07:34:17.169Z,17120.00
2018-04-29T07:35:17.080Z,16072.00
2018-04-29T07:36:16.986Z,15152.00
2018-04-29T07:37:16.895Z,15008.00
2018-04-29T07:38:16.805Z,14332.00
2018-04-29T07:39:16.714Z,14672.00
2018-04-29T07:40:16.635Z,16928.00
2018-04-29T07:41:16.546Z,17952.00
2018-04-29T07:42:16.454Z,18400.00
2018-04-29T07:43:16.364Z,18496.00
2018-04-29T07:44:16.272Z,19200.00
2018-04-29T07:45:16.181Z,18496.00
2018-04-29T07:46:16.091Z,17760.00
2018-04-29T07:47:16.001Z,18240.00
2018-04-29T07:48:15.910Z,19744.00
2018-04-29T07:49:15.829Z,21248.00
2018-04-29T07:50:15.741Z,22208.00
2018-04-29T07:51:15.649Z,22528.00
2018-04-29T07:52:15.601Z,22432.00
2018-04-29T07:53:15.467Z,22496.00
2018-04-29T07:54:15.378Z,23040.00
2018-04-29T07:55:15.285Z,22496.00
2018-04-29T07:56:15.197Z,21472.00
2018-04-29T07:57:15.118Z,19904.00
2018-04-29T07:58:15.026Z,17888.00
2018-04-29T07:59:14.936Z,16232.00
2018-04-29T08:00:14.844Z,15480.00
2018-04-29T08:01:14.754Z,15356.00
2018-04-29T08:02:14.662Z,15464.00
2018-04-29T08:03:14.583Z,15668.00
2018-04-29T08:04:14.494Z,15872.00
2018-04-29T08:05:14.404Z,16252.00
2018-04-29T08:06:14.312Z,16516.00
2018-04-29T08:07:14.221Z,16800.00
2018-04-29T08:08:14.131Z,16864.00
2018-04-29T08:09:14.041Z,17152.00
2018-04-29T08:10:13.961Z,17632.00
2018-04-29T08:11:13.870Z,18240.00
2018-04-29T08:12:13.779Z,18880.00
2018-04-29T08:13:13.691Z,19328.00
2018-04-29T08:14:13.601Z,19712.00
2018-04-29T08:15:13.507Z,19712.00
2018-04-29T08:16:13.416Z,19264.00
2018-04-29T08:17:13.326Z,18496.00
2018-04-29T08:18:13.248Z,17920.00
2018-04-29T08:19:13.156Z,16928.00
2018-04-29T08:20:13.066Z,15876.00
2018-04-29T08:21:12.974Z,15064.00
2018-04-29T08:22:12.886Z,14432.00
2018-04-29T08:23:12.792Z,13936.00
2018-04-29T08:24:12.702Z,13120.00
2018-04-29T08:25:12.612Z,12088.00
2018-04-29T08:26:12.532Z,11316.00
2018-04-29T08:27:12.443Z,11164.00
2018-04-29T08:28:12.351Z,10796.00
2018-04-29T08:29:12.261Z,10832.00
2018-04-29T08:30:12.220Z,11260.00
2018-04-29T08:31:12.080Z,12100.00
2018-04-29T08:32:11.988Z,13072.00
2018-04-29T08:33:11.898Z,13960.00
2018-04-29T08:34:11.811Z,14140.00
2018-04-29T08:35:11.716Z,13692.00
2018-04-29T08:36:11.694Z,12608.00
2018-04-29T08:37:11.546Z,12328.00
2018-04-29T08:38:11.456Z,13148.00
2018-04-29T08:39:11.365Z,14500.00
2018-04-29T08:40:11.277Z,13680.00
2018-04-29T08:41:11.183Z,12988.00
2018-04-29T08:42:11.092Z,11600.00
2018-04-29T08:43:11.086Z,11444.00
2018-04-29T08:44:10.911Z,11468.00
2018-04-29T08:45:10.826Z,10120.00
2018-04-29T08:46:10.730Z,9616.00
2018-04-29T08:47:10.639Z,10960.00
2018-04-29T08:48:10.549Z,14476.00
2018-04-29T08:49:10.457Z,15064.00
2018-04-29T08:50:10.400Z,12976.00
2018-04-29T08:51:10.275Z,12600.00
2018-04-29T08:52:10.185Z,10932.00
2018-04-29T08:53:10.093Z,9844.00
2018-04-29T08:54:10.006Z,9380.00
2018-04-29T08:55:09.912Z,9152.00
2018-04-29T08:56:09.822Z,9100.00
2018-04-29T08:57:09.744Z,9092.00
2018-04-29T08:58:09.642Z,9200.00
2018-04-29T08:59:09.548Z,9812.00
2018-04-29T09:00:09.459Z,13396.00
2018-04-29T09:01:09.369Z,24192.00
2018-04-29T09:02:09.279Z,37856.00
2018-04-29T09:03:09.186Z,45088.00
2018-04-29T09:04:09.097Z,46592.00
2018-04-29T09:05:09.004Z,47872.00
2018-04-29T09:06:08.914Z,47104.00
2018-04-29T09:07:08.826Z,46272.00
2018-04-29T09:08:08.732Z,45952.00
2018-04-29T09:09:08.644Z,45888.00
2018-04-29T09:10:08.552Z,46048.00
2018-04-29T09:11:08.459Z,46016.00
2018-04-29T09:12:08.369Z,45824.00
2018-04-29T09:13:08.280Z,45344.00
2018-04-29T09:14:08.199Z,46624.00
2018-04-29T09:15:08.113Z,47904.00
2018-04-29T09:16:08.018Z,48064.00
2018-04-29T09:17:07.941Z,46752.00
2018-04-29T09:18:07.849Z,46656.00
2018-04-29T09:19:07.770Z,47488.00
2018-04-29T09:20:07.679Z,49984.00
2018-04-29T09:21:07.593Z,51744.00
2018-04-29T09:22:07.497Z,50752.00
2018-04-29T09:23:07.419Z,48000.00
2018-04-29T09:24:07.329Z,46816.00
2018-04-29T09:25:07.253Z,47904.00
2018-04-29T09:26:07.159Z,48992.00
2018-04-29T09:27:07.081Z,36608.00
2018-04-29T09:28:06.991Z,44768.00
2018-04-29T09:29:06.900Z,52896.00
2018-04-29T09:30:06.821Z,52128.00
2018-04-29T09:31:06.731Z,53632.00
2018-04-29T09:32:06.653Z,54112.00
2018-04-29T09:33:06.561Z,52768.00
2018-04-29T09:34:06.482Z,49696.00
2018-04-29T09:35:06.404Z,46720.00
2018-04-29T09:36:06.314Z,43232.00
2018-04-29T09:37:06.257Z,41152.00
2018-04-29T09:38:06.145Z,40064.00
2018-04-29T09:39:06.066Z,39552.00
2018-04-29T09:40:05.977Z,39456.00
2018-04-29T09:41:05.899Z,38528.00
2018-04-29T09:42:05.819Z,38688.00
2018-04-29T09:43:05.727Z,38080.00
2018-04-29T09:44:05.649Z,38048.00
2018-04-29T09:45:05.571Z,38144.00
2018-04-29T09:46:05.486Z,38208.00
2018-04-29T09:47:05.402Z,37920.00
2018-04-29T09:48:05.324Z,37440.00
2018-04-29T09:49:05.237Z,37824.00
2018-04-29T09:50:05.154Z,37888.00
2018-04-29T09:51:05.076Z,37696.00
2018-04-29T09:52:04.997Z,37472.00
2018-04-29T09:53:04.907Z,37120.00
2018-04-29T09:54:04.831Z,36704.00
2018-04-29T09:55:04.750Z,36512.00
2018-04-29T09:56:04.673Z,36576.00
2018-04-29T09:57:04.580Z,36384.00
2018-04-29T09:58:04.502Z,36416.00
2018-04-29T09:59:04.423Z,36448.00
2018-04-29T10:00:04.345Z,36576.00
2018-04-29T10:01:04.337Z,36480.00
2018-04-29T10:02:04.178Z,36576.00
2018-04-29T10:03:04.100Z,36576.00
2018-04-29T10:04:03.936Z,37184.00
2018-04-29T10:05:03.931Z,43904.00
2018-04-29T10:06:03.850Z,51296.00
2018-04-29T10:07:03.773Z,52864.00
2018-04-29T10:08:03.693Z,52832.00
2018-04-29T10:09:03.621Z,52960.00
2018-04-29T10:10:03.539Z,53472.00
2018-04-29T10:11:03.448Z,54240.00
2018-04-29T10:12:03.369Z,53984.00
2018-04-29T10:13:03.294Z,54560.00
2018-04-29T10:14:03.213Z,54880.00
2018-04-29T10:15:03.136Z,54816.00
2018-04-29T10:16:03.044Z,55360.00
2018-04-29T10:17:02.964Z,55936.00
2018-04-29T10:18:02.886Z,56512.00
2018-04-29T10:19:02.821Z,57824.00
2018-04-29T10:20:03.031Z,58272.00
2018-04-29T10:21:02.650Z,57952.00
2018-04-29T10:22:02.572Z,58080.00
2018-04-29T10:23:02.495Z,58976.00
2018-04-29T10:24:02.416Z,60256.00
2018-04-29T10:25:02.327Z,67840.00
2018-04-29T10:26:02.248Z,101824.00
2018-04-29T10:27:02.171Z,146368.00
2018-04-29T10:28:02.092Z,167744.00
2018-04-29T10:29:02.016Z,155552.00
2018-04-29T10:30:01.935Z,142688.00
2018-04-29T10:31:01.856Z,134784.00
2018-04-29T10:32:01.778Z,127264.00
2018-04-29T10:33:01.739Z,114912.00
2018-04-29T10:34:01.621Z,109664.00
2018-04-29T10:35:01.543Z,106112.00
2018-04-29T10:36:01.465Z,102912.00
2018-04-29T10:37:01.387Z,100864.00
2018-04-29T10:38:01.309Z,100992.00
2018-04-29T10:39:01.218Z,101952.00
2018-04-29T10:40:01.151Z,99552.00
2018-04-29T10:41:01.067Z,96480.00
2018-04-29T10:42:00.981Z,97760.00
2018-04-29T10:43:00.903Z,102368.00
2018-04-29T10:44:00.825Z,119136.00
2018-04-29T10:45:00.747Z,134272.00
2018-04-29T10:46:00.668Z,136960.00
2018-04-29T10:47:00.585Z,138496.00
2018-04-29T10:48:00.511Z,140480.00
2018-04-29T10:49:00.433Z,141984.00
2018-04-29T10:50:00.356Z,141920.00
2018-04-29T10:51:00.276Z,139392.00
2018-04-29T10:52:00.217Z,135296.00
2018-04-29T10:53:00.120Z,123200.00
2018-04-29T10:54:00.042Z,107968.00
2018-04-29T10:54:59.963Z,105600.00
2018-04-29T10:55:59.889Z,104576.00
2018-04-29T10:56:59.807Z,105184.00
2018-04-29T10:57:59.728Z,107968.00
2018-04-29T10:58:59.650Z,116832.00
2018-04-29T10:59:59.871Z,130368.00
2018-04-29T11:00:59.500Z,114560.00
2018-04-29T11:01:59.415Z,102784.00
2018-04-29T11:02:59.338Z,102336.00
2018-04-29T11:03:59.260Z,101824.00
2018-04-29T11:04:59.197Z,101984.00
2018-04-29T11:05:59.115Z,99616.00
2018-04-29T11:06:59.037Z,97920.00
2018-04-29T11:07:58.959Z,98976.00
2018-04-29T11:08:58.880Z,101408.00
2018-04-29T11:09:58.802Z,102336.00
2018-04-29T11:10:58.724Z,100704.00
2018-04-29T11:11:58.645Z,97600.00
2018-04-29T11:12:58.567Z,95648.00
2018-04-29T11:13:58.489Z,98720.00
2018-04-29T11:14:58.410Z,100320.00
2018-04-29T11:15:58.332Z,101152.00
2018-04-29T11:16:58.254Z,99680.00
2018-04-29T11:17:58.176Z,100032.00
2018-04-29T11:18:58.096Z,100640.00
2018-04-29T11:19:58.019Z,99936.00
2018-04-29T11:20:57.949Z,101440.00
2018-04-29T11:21:57.863Z,104288.00
2018-04-29T11:22:57.784Z,107936.00
2018-04-29T11:23:57.705Z,101984.00
2018-04-29T11:24:57.686Z,82048.00
2018-04-29T11:25:57.549Z,50240.00
2018-04-29T11:26:57.471Z,11020.00
2018-04-29T11:27:57.392Z,6928.00
2018-04-29T11:28:57.302Z,6916.00
2018-04-29T11:29:57.222Z,6948.00
2018-04-29T11:30:57.144Z,7020.00
2018-04-29T11:31:57.068Z,7096.00
2018-04-29T11:32:56.987Z,7156.00
2018-04-29T11:33:56.971Z,7180.00
2018-04-29T11:34:56.821Z,7164.00
2018-04-29T11:35:56.741Z,7156.00
2018-04-29T11:36:56.662Z,7156.00
2018-04-29T11:37:56.570Z,7156.00
2018-04-29T11:38:56.492Z,7176.00
2018-04-29T11:39:56.406Z,7224.00
2018-04-29T11:40:56.324Z,7212.00
2018-04-29T11:41:56.233Z,7196.00
2018-04-29T11:42:56.156Z,7176.00
2018-04-29T11:43:56.064Z,7144.00
2018-04-29T11:44:55.985Z,7120.00
2018-04-29T11:45:55.907Z,7100.00
2018-04-29T11:46:55.828Z,7084.00
2018-04-29T11:47:55.727Z,7052.00
2018-04-29T11:48:55.635Z,7012.00
2018-04-29T11:49:55.859Z,6924.00
2018-04-29T11:50:55.465Z,6840.00
2018-04-29T11:51:55.397Z,6772.00
2018-04-29T11:52:55.296Z,6724.00
2018-04-29T11:53:55.206Z,6744.00
2018-04-29T11:54:55.116Z,6772.00
2018-04-29T11:55:55.036Z,6832.00
2018-04-29T11:56:54.949Z,6884.00
2018-04-29T11:57:54.854Z,6912.00
2018-04-29T11:58:54.765Z,6924.00
2018-04-29T11:59:54.935Z,6928.00
2018-04-29T12:00:54.594Z,6944.00
2018-04-29T12:01:54.570Z,7160.00
2018-04-29T12:02:54.412Z,7480.00
2018-04-29T12:03:54.323Z,7752.00
2018-04-29T12:04:54.244Z,13716.00
2018-04-29T12:05:54.152Z,37696.00
2018-04-29T12:06:54.068Z,54752.00
2018-04-29T12:07:53.970Z,60832.00
2018-04-29T12:08:53.880Z,56928.00
2018-04-29T12:09:53.866Z,46496.00
2018-04-29T12:10:53.712Z,37184.00
2018-04-29T12:11:53.621Z,29024.00
2018-04-29T12:12:53.531Z,24064.00
2018-04-29T12:13:53.451Z,15720.00